Terminal Aerodrome Forecast
Issued by NWS Louisville, KY

Home | Current Version | Previous Version | Text Only | Print | Product List | Glossary On
Versions: 1 2 3 4 5 6 7 8 9 10 11 12 13 14 15 16 17 18 19 20 21 22 23 24 25 26 27 28 29 30 31 32 33 34 35 36 37 38
000
FTUS43 KLMK 181506 AAA
TAFSDF
TAF AMD
KSDF 181506Z 1815/1918 20020G33KT 6SM -SHRA BKN025 OVC030
      WS020/20055KT
     FM181700 23021G31KT 6SM -SHRA OVC015
     FM181900 24019G28KT P6SM OVC021
     FM182300 28018G25KT P6SM BKN023
     FM191100 28014KT P6SM SCT030=

USA.gov is the U.S. government's official web portal to all federal, state and local government web resources and services.